Aérodrome :
LOGIN :

S'inscrire | Disclaimer

   EN    FR    IT 

 










Légende :    VFR   VFR Marginal   IFR   IFR Intensif   IFR Très Intensif
Visi : 
Plafond : 
>= 8 km
>= 3000ft
5 à 8 km
1000 à 3000 ft
1500m à 5 km
500 à 1000 ft
800 à 1500m
200 à 500 ft
< 800m
< 200 ft
Symboles :   Orages  Brouillard  Fortes neiges  Fortes précipitations  Vent > 20 kt
SIGMETs :   Divers  Orages  Givrage  Turbulence  Onde Orograph.  Cendres Volcan.







- Altitude de l'aérodrome : 1299 ft


EDTY - Adolf Würth

DERNIER METAR :
  • 250950Z 26015G26KT 230V290 9999 FEW028 BKN038 BKN046 19/10 Q1013

METARs EXPIRÉS :
  • 250920Z 25015KT 220V280 9999 R28/M0050D SCT030 BKN035 BKN043 18/10 Q1013
  • 250850Z 24013KT 9999 BKN032 BKN043 17/10 Q1013
  • 250820Z 23009KT 200V260 9999 SCT033 17/10 Q1013
  • 250750Z 24009KT 9999 BKN035 OVC042 16/10 Q1013
  • 250720Z 23008KT 190V250 9999 BKN038 16/10 Q1013

TAF TAF EDTY
Valide du 25 à 09h jusqu'au 25 à 18h UTC


250800Z 2509/2518 25015G25KT 9999 SCT035
BECMG 2511/2512 26020G35KT
BECMG 2516/2518 28009KT
Pas de NOTAMs connus pour ce terrain.



MET'MAP, la Météo Aéronautique d'un coup d'oeil ! - Copyright ORBIFLY Décembre 2007 - Disclaimer

ORBIFLY MET'MAP TEAM :

Programmation & Développement : Alexandra Zaïnal
Conception & Développement : Baudouin d'Aumeries
Co-Programmation & Développement : Marc-Olivier Méhu
Soutien technique & logistique : Manuel Goepfert

Contact : metmap@orbifly.com




SOURCES & CREDITS :

   NOAA